Time;durP1;ratioP1;P1;durP2;ratioP2;P2;SDS_P1;SDS_P2;PMS_P1;PMS_P2;Temp;Humidity;BMP_temperature;BMP_pressure;BME280_temperature;BME280_humidity;BME280_pressure;Samples;Min_cycle;Max_cycle;Signal;HPM_P1;HPM_P2
2023/10/08 00:02:22;;;;;;;11.10;3.00;;;;;;;19.27;91.53;102008.00;7358431;19;20034;-65
2023/10/08 00:04:50;;;;;;;12.35;2.72;;;;;;;19.22;91.64;102006.72;7354780;19;20134;-66
2023/10/08 00:07:21;;;;;;;6.38;3.20;;;;;;;19.21;92.49;102010.38;7354775;19;20039;-65
2023/10/08 00:09:52;;;;;;;9.05;3.35;;;;;;;19.19;92.26;102008.91;7352783;19;20029;-66
2023/10/08 00:12:20;;;;;;;9.65;2.75;;;;;;;19.18;92.19;102004.59;7354465;19;20022;-64
2023/10/08 00:14:49;;;;;;;8.85;2.53;;;;;;;19.14;92.20;102014.78;7361921;19;20014;-67
2023/10/08 00:17:18;;;;;;;10.55;2.45;;;;;;;19.12;91.67;102006.13;7362741;19;20022;-67
2023/10/08 00:19:47;;;;;;;9.45;3.05;;;;;;;19.10;91.65;102002.78;7364541;19;20011;-67
2023/10/08 00:22:18;;;;;;;8.98;2.53;;;;;;;19.11;91.73;102004.47;7362977;19;20649;-67
2023/10/08 00:24:46;;;;;;;9.63;2.80;;;;;;;19.12;91.30;102005.28;7362416;19;20019;-67
2023/10/08 00:27:14;;;;;;;7.60;2.78;;;;;;;19.11;91.41;101999.13;7359297;19;20560;-65
2023/10/08 00:29:43;;;;;;;5.50;2.25;;;;;;;19.10;90.99;102002.78;7358391;19;20491;-67
2023/10/08 00:32:12;;;;;;;8.75;2.40;;;;;;;19.06;90.67;102001.50;7362667;19;20029;-66
2023/10/08 00:34:42;;;;;;;8.50;2.83;;;;;;;19.02;90.71;101997.53;7363213;19;20408;-66
2023/10/08 00:37:14;;;;;;;8.55;2.55;;;;;;;19.01;90.56;101997.72;7361615;19;20010;-69
2023/10/08 00:39:49;;;;;;;8.65;2.53;;;;;;;19.01;91.27;101998.53;7360332;19;20027;-65
2023/10/08 00:42:17;;;;;;;9.13;3.05;;;;;;;18.98;90.23;102009.59;7359274;19;20074;-66
2023/10/08 00:44:50;;;;;;;7.75;2.42;;;;;;;18.95;90.29;102009.91;7361649;19;20471;-66
2023/10/08 00:47:21;;;;;;;9.20;2.70;;;;;;;18.93;90.19;102017.28;7356725;19;20011;-66
2023/10/08 00:49:54;;;;;;;9.82;2.47;;;;;;;18.88;90.25;102009.00;7357975;19;20011;-66
2023/10/08 00:52:26;;;;;;;6.88;2.97;;;;;;;18.86;90.55;102015.50;7360566;19;20010;-65
2023/10/08 00:55:06;;;;;;;7.57;2.72;;;;;;;18.80;90.32;102006.38;7360085;19;20018;-66
2023/10/08 00:57:41;;;;;;;5.65;2.33;;;;;;;18.77;90.46;102012.91;7356973;19;20283;-66
2023/10/08 01:00:17;;;;;;;6.78;2.58;;;;;;;18.75;90.95;102011.41;7354875;19;20026;-67
2023/10/08 01:02:46;;;;;;;9.00;2.53;;;;;;;18.74;90.53;102017.75;7362265;19;20587;-68
2023/10/08 01:05:26;;;;;;;8.73;2.83;;;;;;;18.71;90.45;102016.28;7359537;19;20012;-66
2023/10/08 01:07:56;;;;;;;6.43;2.25;;;;;;;18.71;90.53;102018.09;7357477;19;20018;-66
2023/10/08 01:10:24;;;;;;;11.63;3.58;;;;;;;18.69;90.46;102017.47;7360073;19;20553;-67
2023/10/08 01:15:29;;;;;;;7.82;2.55;;;;;;;18.64;90.40;102025.97;7355166;19;20017;-66
2023/10/08 01:18:00;;;;;;;10.80;2.45;;;;;;;18.64;90.51;102020.63;7357399;19;20190;-66
2023/10/08 01:23:10;;;;;;;9.65;3.00;;;;;;;18.62;90.51;102009.34;7358201;19;20035;-66
2023/10/08 01:25:38;;;;;;;9.77;2.58;;;;;;;18.60;90.21;102011.31;7356151;19;20515;-66
2023/10/08 01:28:14;;;;;;;8.88;2.78;;;;;;;18.59;90.20;102003.53;7356942;19;20030;-66
2023/10/08 01:30:42;;;;;;;6.90;2.40;;;;;;;18.57;90.23;102008.19;7360063;19;20022;-66
2023/10/08 01:33:11;;;;;;;9.60;2.55;;;;;;;18.55;90.64;102003.03;7360818;19;20044;-66
2023/10/08 01:35:40;;;;;;;9.55;2.10;;;;;;;18.53;90.78;102005.03;7363377;19;20137;-65
2023/10/08 01:38:13;;;;;;;7.53;2.90;;;;;;;18.52;90.63;101999.88;7357700;19;20011;-67
2023/10/08 01:40:42;;;;;;;8.13;2.80;;;;;;;18.49;91.09;102005.56;7359330;19;20052;-66
2023/10/08 01:43:11;;;;;;;7.82;2.53;;;;;;;18.48;91.71;102007.38;7359496;19;20081;-67
2023/10/08 01:45:40;;;;;;;7.05;2.38;;;;;;;18.49;92.07;102003.69;7359657;19;20467;-67
2023/10/08 01:48:09;;;;;;;9.15;2.67;;;;;;;18.49;91.59;102008.22;7358696;19;20357;-66
2023/10/08 01:50:38;;;;;;;9.25;3.05;;;;;;;18.48;91.27;102007.38;7359585;19;20034;-66
2023/10/08 01:53:09;;;;;;;10.65;2.65;;;;;;;18.45;91.69;101999.72;7356079;19;21629;-66
2023/10/08 01:58:18;;;;;;;11.93;2.90;;;;;;;18.36;91.77;102011.44;7356805;19;20502;-66
2023/10/08 02:00:48;;;;;;;7.28;2.63;;;;;;;18.34;92.26;102008.09;7354206;19;20007;-66
2023/10/08 02:03:17;;;;;;;6.38;2.45;;;;;;;18.34;92.62;102011.59;7360310;19;20018;-67
2023/10/08 02:05:46;;;;;;;11.23;3.53;;;;;;;18.34;92.50;102011.59;7356957;19;20078;-66
2023/10/08 02:08:16;;;;;;;7.57;2.53;;;;;;;18.35;92.22;102012.44;7355833;19;20096;-66
2023/10/08 02:10:47;;;;;;;7.10;2.83;;;;;;;18.33;92.42;102009.13;7356785;19;20037;-66
2023/10/08 02:13:15;;;;;;;7.55;2.70;;;;;;;18.29;92.54;102013.97;7354732;19;20026;-67
2023/10/08 02:15:51;;;;;;;9.02;3.08;;;;;;;18.28;92.70;102012.31;7355830;19;20078;-69
2023/10/08 02:18:20;;;;;;;12.40;3.47;;;;;;;18.26;92.74;102003.66;7356775;19;20014;-67
2023/10/08 02:20:48;;;;;;;8.25;3.47;;;;;;;18.26;92.36;102001.00;7358210;19;20021;-68
2023/10/08 02:23:17;;;;;;;7.25;2.83;;;;;;;18.26;92.88;102002.84;7354176;19;20017;-66
2023/10/08 02:25:45;;;;;;;8.32;3.50;;;;;;;18.25;92.95;102002.00;7358753;19;20018;-66
2023/10/08 02:28:15;;;;;;;10.65;2.95;;;;;;;18.24;93.20;101999.50;7354547;19;20022;-65
2023/10/08 02:30:43;;;;;;;7.15;3.05;;;;;;;18.21;93.13;101999.84;7355966;19;20025;-67
2023/10/08 02:35:49;;;;;;;10.13;3.40;;;;;;;18.18;93.54;101995.72;7356329;19;20037;-67
2023/10/08 02:38:18;;;;;;;8.07;2.83;;;;;;;18.19;93.94;101996.53;7356686;19;20014;-67
2023/10/08 02:40:47;;;;;;;12.05;2.92;;;;;;;18.17;93.57;101996.72;7351896;19;20025;-66
2023/10/08 02:43:16;;;;;;;7.43;3.13;;;;;;;18.15;93.96;101988.06;7356991;19;20441;-66
2023/10/08 02:45:49;;;;;;;9.25;3.10;;;;;;;18.13;94.18;101992.75;7355999;19;20026;-66
2023/10/08 02:48:17;;;;;;;10.00;3.58;;;;;;;18.11;94.13;101988.56;7353923;19;20011;-66
2023/10/08 02:50:46;;;;;;;10.52;3.83;;;;;;;18.11;93.72;101992.06;7355952;19;20033;-65
2023/10/08 02:55:52;;;;;;;9.52;3.20;;;;;;;18.10;93.96;101994.91;7358960;19;20407;-66
2023/10/08 02:58:19;;;;;;;11.40;3.45;;;;;;;18.09;93.89;101991.41;7350433;19;20105;-67
2023/10/08 03:00:48;;;;;;;8.32;3.10;;;;;;;18.07;93.91;101992.59;7351704;19;20014;-65
2023/10/08 03:03:18;;;;;;;9.60;3.17;;;;;;;18.08;94.06;101988.94;7352064;19;21375;-67
2023/10/08 03:05:49;;;;;;;10.25;3.22;;;;;;;18.06;93.93;101989.09;7355472;19;20022;-65
2023/10/08 03:08:21;;;;;;;8.70;3.00;;;;;;;18.05;93.83;101987.44;7353148;19;20048;-65
2023/10/08 03:10:50;;;;;;;9.57;3.00;;;;;;;18.03;94.51;101992.09;7356894;19;20014;-66
2023/10/08 03:13:19;;;;;;;11.48;3.65;;;;;;;18.02;94.61;101998.44;7354245;19;20309;-68
2023/10/08 03:15:57;;;;;;;6.45;3.15;;;;;;;18.01;94.34;101994.13;7357000;19;20433;-66
2023/10/08 03:18:25;;;;;;;9.25;3.60;;;;;;;18.02;94.41;101994.94;7353117;19;20426;-66
2023/10/08 03:20:53;;;;;;;8.77;3.70;;;;;;;18.04;94.62;102004.41;7354627;19;20400;-67
2023/10/08 03:23:24;;;;;;;11.13;3.47;;;;;;;18.04;94.20;102001.75;7356175;19;20023;-66
2023/10/08 03:25:58;;;;;;;9.48;3.55;;;;;;;18.04;94.34;101999.09;7357677;19;20030;-64
2023/10/08 03:28:28;;;;;;;12.43;3.33;;;;;;;18.06;94.30;102004.25;7353584;19;20025;-66
2023/10/08 03:31:03;;;;;;;10.95;3.42;;;;;;;18.06;94.33;102012.25;7356673;19;20035;-66
2023/10/08 03:33:37;;;;;;;9.35;3.20;;;;;;;18.07;93.82;102006.75;7355754;19;20014;-66
2023/10/08 03:38:44;;;;;;;8.95;3.20;;;;;;;18.01;93.99;102018.09;7351442;19;20020;-67
2023/10/08 03:43:53;;;;;;;14.93;3.33;;;;;;;17.95;94.18;102016.94;7355225;19;20319;-65
2023/10/08 03:46:22;;;;;;;13.23;4.07;;;;;;;17.95;94.45;102014.28;7353709;19;20094;-65
2023/10/08 03:48:51;;;;;;;8.65;3.88;;;;;;;17.93;93.83;102012.78;7350066;19;20011;-66
2023/10/08 03:51:20;;;;;;;9.98;3.55;;;;;;;17.89;94.12;102012.28;7354810;19;20021;-65
2023/10/08 03:56:29;;;;;;;7.95;2.97;;;;;;;17.82;94.26;102015.81;7352540;19;20578;-66
2023/10/08 03:59:12;;;;;;;9.07;2.95;;;;;;;17.81;94.38;102011.50;7352889;19;20035;-65
2023/10/08 04:01:42;;;;;;;8.45;3.58;;;;;;;17.81;94.46;102011.50;7351860;19;20663;-64
2023/10/08 04:04:14;;;;;;;9.57;3.20;;;;;;;17.79;94.44;102013.50;7350571;19;20089;-66
2023/10/08 04:11:51;;;;;;;11.90;3.40;;;;;;;17.72;94.16;102021.34;7356245;19;20048;-65
2023/10/08 04:14:24;;;;;;;8.05;3.80;;;;;;;17.68;94.13;102020.00;7349784;19;20010;-65
2023/10/08 04:16:52;;;;;;;7.03;2.78;;;;;;;17.66;94.22;102024.69;7353063;19;20011;-65
2023/10/08 04:19:26;;;;;;;6.32;3.03;;;;;;;17.64;94.34;102016.03;7351031;19;20151;-66
2023/10/08 04:21:54;;;;;;;8.48;2.88;;;;;;;17.60;94.26;102020.03;7352715;19;20014;-66
2023/10/08 04:24:34;;;;;;;8.75;2.92;;;;;;;17.56;94.29;102013.34;7351298;19;20596;-66
2023/10/08 04:27:03;;;;;;;8.25;3.20;;;;;;;17.55;94.64;102003.72;7353917;19;20044;-68
2023/10/08 04:29:31;;;;;;;5.95;3.05;;;;;;;17.54;94.33;102008.19;7350350;19;20019;-65
2023/10/08 04:32:01;;;;;;;11.00;3.05;;;;;;;17.52;94.37;101998.72;7352751;19;20017;-66
2023/10/08 04:34:29;;;;;;;7.22;2.55;;;;;;;17.48;94.81;102000.88;7354523;19;20048;-65
2023/10/08 04:37:00;;;;;;;8.45;2.63;;;;;;;17.48;94.77;102003.53;7355508;19;20019;-65
2023/10/08 04:42:10;;;;;;;6.55;2.92;;;;;;;17.47;94.94;101998.41;7355533;19;20015;-65
2023/10/08 04:44:40;;;;;;;7.65;3.10;;;;;;;17.49;94.88;102004.38;7350231;19;20538;-66
2023/10/08 04:47:08;;;;;;;9.50;3.10;;;;;;;17.49;94.98;101999.88;7351635;19;20013;-66
2023/10/08 04:49:45;;;;;;;7.25;3.03;;;;;;;17.50;95.23;102004.22;7349665;19;20015;-65
2023/10/08 04:52:15;;;;;;;6.82;2.95;;;;;;;17.53;94.61;101998.53;7354004;19;20114;-66
2023/10/08 04:54:51;;;;;;;8.20;3.13;;;;;;;17.53;94.93;101993.22;7351963;19;21669;-66
2023/10/08 04:57:22;;;;;;;6.30;2.65;;;;;;;17.50;94.54;101987.41;7353627;19;20010;-65
2023/10/08 04:59:50;;;;;;;7.03;3.33;;;;;;;17.46;94.56;101991.41;7353744;19;20018;-66
2023/10/08 05:02:19;;;;;;;10.07;3.17;;;;;;;17.43;94.79;101989.91;7356954;19;20010;-65
2023/10/08 05:12:34;;;;;;;7.15;2.70;;;;;;;17.43;94.96;101989.06;7358398;19;20033;-66
2023/10/08 05:23:05;;;;;;;10.40;3.50;;;;;;;17.46;94.55;101991.41;7359273;19;20050;-65
2023/10/08 05:25:40;;;;;;;8.27;2.75;;;;;;;17.47;94.19;101993.88;7359123;19;20022;-66
2023/10/08 05:28:09;;;;;;;7.38;3.05;;;;;;;17.47;94.38;101983.25;7355740;19;20364;-65
2023/10/08 05:33:08;;;;;;;7.45;2.80;;;;;;;17.52;95.02;101983.56;7360867;19;20035;-65
2023/10/08 05:38:21;;;;;;;12.07;3.20;;;;;;;17.52;94.15;101982.75;7357665;19;20042;-66
2023/10/08 05:43:55;;;;;;;6.78;2.53;;;;;;;17.47;93.72;101990.44;7353752;19;20025;-65
2023/10/08 05:49:03;;;;;;;6.88;2.75;;;;;;;17.46;94.46;101999.41;7355331;19;20010;-63
2023/10/08 05:54:24;;;;;;;6.82;3.00;;;;;;;17.41;93.77;101997.25;7360480;19;20423;-66
2023/10/08 05:59:38;;;;;;;7.75;2.60;;;;;;;17.43;93.59;101994.41;7355017;19;20033;-65
2023/10/08 06:02:27;;;;;;;8.88;2.15;;;;;;;17.43;93.85;102005.03;7359052;19;20014;-65
2023/10/08 06:07:48;;;;;;;7.18;2.55;;;;;;;17.42;93.81;102000.75;7355396;19;21923;-66
2023/10/08 06:13:01;;;;;;;7.63;2.85;;;;;;;17.36;93.76;101999.59;7356616;19;20030;-64
2023/10/08 06:18:13;;;;;;;7.97;2.95;;;;;;;17.32;94.09;102002.75;7358633;19;20654;-65
2023/10/08 06:20:43;;;;;;;10.55;3.20;;;;;;;17.31;94.29;102006.41;7356798;19;20297;-65
2023/10/08 06:23:18;;;;;;;7.50;2.95;;;;;;;17.29;93.96;102001.25;7355997;19;20414;-68
2023/10/08 06:25:47;;;;;;;8.23;3.05;;;;;;;17.28;93.56;101999.56;7358567;19;20021;-65
2023/10/08 06:28:19;;;;;;;6.40;2.72;;;;;;;17.28;93.85;101993.41;7354564;19;20343;-66
2023/10/08 06:30:49;;;;;;;8.93;3.00;;;;;;;17.25;93.85;102002.59;7356162;19;20019;-65
2023/10/08 06:33:16;;;;;;;10.73;4.80;;;;;;;17.25;94.19;102002.59;7356702;19;20015;-65
2023/10/08 06:35:56;;;;;;;8.73;3.10;;;;;;;17.27;94.21;101994.44;7360428;19;20076;-65
2023/10/08 06:38:24;;;;;;;7.93;2.40;;;;;;;17.28;93.45;101994.25;7356359;19;20101;-67
2023/10/08 06:40:53;;;;;;;7.47;3.30;;;;;;;17.27;93.34;102002.41;7358161;19;20878;-66
2023/10/08 06:43:24;;;;;;;5.85;2.33;;;;;;;17.28;93.47;101996.06;7352134;19;20161;-67
2023/10/08 06:45:52;;;;;;;7.10;2.25;;;;;;;17.30;93.50;102004.75;7358502;19;20018;-67
2023/10/08 06:48:23;;;;;;;9.60;2.97;;;;;;;17.30;93.33;102013.56;7355115;19;20383;-65
2023/10/08 06:50:57;;;;;;;6.78;2.40;;;;;;;17.34;93.46;102016.69;7359369;19;20010;-66
2023/10/08 06:53:25;;;;;;;8.23;2.00;;;;;;;17.38;92.71;102007.38;7356401;19;20018;-67
2023/10/08 06:55:56;;;;;;;6.72;2.45;;;;;;;17.40;92.38;102013.38;7358466;19;20054;-66
2023/10/08 06:58:24;;;;;;;5.68;2.40;;;;;;;17.38;92.17;102007.38;7354391;19;20711;-67
2023/10/08 07:00:52;;;;;;;7.40;2.22;;;;;;;17.38;92.19;102008.22;7357170;19;20018;-66
2023/10/08 07:03:20;;;;;;;4.90;2.08;;;;;;;17.38;92.37;102016.19;7355791;19;20748;-67
2023/10/08 07:08:32;;;;;;;5.93;2.33;;;;;;;17.41;92.16;102012.38;7353399;19;20014;-65
2023/10/08 07:11:05;;;;;;;6.85;2.22;;;;;;;17.43;91.88;102015.69;7354939;19;20010;-67
2023/10/08 07:13:35;;;;;;;6.57;2.28;;;;;;;17.43;92.06;102013.03;7352508;19;20015;-66
2023/10/08 07:16:04;;;;;;;6.50;2.33;;;;;;;17.45;91.92;102013.69;7354773;19;20635;-67
2023/10/08 07:18:36;;;;;;;6.40;2.58;;;;;;;17.46;91.79;102018.88;7358843;19;20022;-66
2023/10/08 07:21:12;;;;;;;6.10;2.35;;;;;;;17.46;91.99;102013.53;7357570;19;20014;-66
2023/10/08 07:26:17;;;;;;;5.28;2.40;;;;;;;17.50;91.74;102017.53;7357486;19;20010;-66
2023/10/08 07:28:46;;;;;;;5.72;2.17;;;;;;;17.51;91.55;102029.84;7352442;19;20487;-66
2023/10/08 07:31:15;;;;;;;8.88;2.97;;;;;;;17.53;91.59;102030.47;7354510;19;20021;-67
2023/10/08 07:33:44;;;;;;;6.82;2.50;;;;;;;17.54;91.42;102029.50;7354555;19;20340;-66
2023/10/08 07:36:12;;;;;;;8.18;2.22;;;;;;;17.56;91.44;102031.16;7357598;19;20010;-67
2023/10/08 07:38:42;;;;;;;8.05;2.22;;;;;;;17.58;91.43;102037.97;7353348;19;20022;-66
2023/10/08 07:41:14;;;;;;;9.90;2.70;;;;;;;17.62;91.30;102038.50;7356234;19;20014;-67
2023/10/08 07:43:42;;;;;;;7.60;2.47;;;;;;;17.65;91.20;102036.31;7352183;19;20743;-67
2023/10/08 07:46:10;;;;;;;8.50;2.75;;;;;;;17.71;91.09;102045.47;7353693;19;20101;-65
2023/10/08 07:51:15;;;;;;;6.97;2.33;;;;;;;17.78;90.41;102041.09;7355768;19;20616;-67
2023/10/08 07:53:42;;;;;;;10.10;2.58;;;;;;;17.84;90.88;102033.28;7356268;19;20736;-67
2023/10/08 07:56:12;;;;;;;8.30;2.08;;;;;;;17.87;90.02;102035.63;7356046;19;20574;-66
2023/10/08 07:58:39;;;;;;;9.02;2.72;;;;;;;17.91;89.69;102023.63;7355117;19;20031;-66
2023/10/08 08:01:09;;;;;;;6.13;2.33;;;;;;;17.95;89.33;102016.09;7350150;19;20010;-65
2023/10/08 08:03:37;;;;;;;8.25;2.42;;;;;;;17.93;89.38;102013.59;7352542;19;20569;-66
2023/10/08 08:06:06;;;;;;;6.50;2.28;;;;;;;17.95;89.07;102018.78;7354032;19;20018;-67
2023/10/08 08:08:35;;;;;;;6.93;1.90;;;;;;;17.97;89.60;102016.78;7353113;19;20037;-66
2023/10/08 08:11:07;;;;;;;5.60;2.20;;;;;;;17.99;89.70;102022.75;7354371;19;20794;-66
2023/10/08 08:13:34;;;;;;;7.07;2.15;;;;;;;18.06;90.61;102025.56;7348892;19;20023;-66
2023/10/08 08:16:20;;;;;;;7.35;2.55;;;;;;;18.11;90.25;102023.22;7353029;19;20665;-67
2023/10/08 08:18:51;;;;;;;5.95;1.85;;;;;;;18.16;89.46;102026.19;7351711;19;20014;-66
2023/10/08 08:21:19;;;;;;;7.70;2.78;;;;;;;18.19;89.26;102025.84;7353424;19;20017;-65
2023/10/08 08:23:48;;;;;;;8.60;2.45;;;;;;;18.21;89.25;102026.50;7352868;19;20618;-66
2023/10/08 08:28:57;;;;;;;6.82;2.38;;;;;;;18.27;88.06;102037.31;7350023;19;20044;-66
2023/10/08 08:31:25;;;;;;;8.05;2.05;;;;;;;18.32;87.75;102040.28;7353695;19;20395;-67
2023/10/08 08:33:53;;;;;;;7.03;2.22;;;;;;;18.38;87.66;102041.44;7353512;19;20106;-67
2023/10/08 08:36:21;;;;;;;7.40;2.08;;;;;;;18.41;87.14;102038.41;7356028;19;20018;-67
2023/10/08 08:38:50;;;;;;;8.15;2.70;;;;;;;18.44;87.49;102032.72;7361552;19;20019;-68
2023/10/08 08:41:18;;;;;;;6.93;2.38;;;;;;;18.49;87.52;102034.88;7355082;19;20134;-66
2023/10/08 08:43:48;;;;;;;6.88;2.30;;;;;;;18.52;87.21;102038.03;7355155;19;20046;-65
2023/10/08 08:46:19;;;;;;;8.95;2.33;;;;;;;18.58;86.78;102039.19;7361368;19;20027;-66
2023/10/08 08:48:48;;;;;;;6.45;2.05;;;;;;;18.60;86.85;102037.16;7358982;19;21971;-66
2023/10/08 08:51:16;;;;;;;6.57;2.75;;;;;;;18.64;87.06;102038.50;7359463;19;20426;-66
2023/10/08 08:53:44;;;;;;;6.70;1.92;;;;;;;18.69;87.08;102038.81;7353998;19;20717;-65
2023/10/08 08:56:13;;;;;;;8.93;2.28;;;;;;;18.74;86.46;102047.09;7358599;19;20006;-67
2023/10/08 08:58:42;;;;;;;9.70;2.65;;;;;;;18.79;86.35;102036.72;7359160;19;20381;-66
2023/10/08 09:01:13;;;;;;;9.73;3.30;;;;;;;18.85;86.37;102037.84;7358881;19;20054;-67
2023/10/08 09:03:41;;;;;;;7.63;2.60;;;;;;;18.89;86.28;102037.34;7359454;19;20025;-67
2023/10/08 09:06:09;;;;;;;10.90;2.45;;;;;;;18.92;85.96;102036.97;7358422;19;20033;-65
2023/10/08 09:08:41;;;;;;;7.00;2.47;;;;;;;18.97;86.24;102037.25;7355175;19;20022;-66
2023/10/08 09:11:14;;;;;;;9.82;2.47;;;;;;;19.00;85.70;102034.22;7359821;19;20687;-66
2023/10/08 09:13:43;;;;;;;6.63;2.33;;;;;;;19.02;85.80;102031.38;7355143;19;20006;-65
2023/10/08 09:16:22;;;;;;;5.80;2.13;;;;;;;19.06;85.69;102041.53;7359244;19;20517;-66
2023/10/08 09:18:51;;;;;;;8.65;2.67;;;;;;;19.09;85.84;102043.03;7360602;19;20029;-66
2023/10/08 09:21:22;;;;;;;10.18;2.40;;;;;;;19.12;85.82;102045.31;7360755;19;20010;-66
2023/10/08 09:23:54;;;;;;;6.88;2.45;;;;;;;19.17;86.02;102042.94;7359144;19;20015;-65
2023/10/08 09:26:28;;;;;;;7.50;2.30;;;;;;;19.22;85.45;102036.06;7359321;19;20524;-66
2023/10/08 09:28:57;;;;;;;6.80;2.67;;;;;;;19.27;84.65;102032.84;7354362;19;20014;-66
2023/10/08 09:31:24;;;;;;;10.57;3.55;;;;;;;19.30;84.36;102040.50;7358434;19;20465;-66
2023/10/08 09:33:54;;;;;;;6.07;2.25;;;;;;;19.36;83.81;102044.28;7356187;19;20018;-66
2023/10/08 09:36:31;;;;;;;7.65;2.40;;;;;;;19.41;83.92;102044.56;7359397;19;20018;-65
2023/10/08 09:39:05;;;;;;;9.65;2.90;;;;;;;19.46;83.50;102047.56;7359039;19;20011;-66
2023/10/08 09:41:33;;;;;;;6.15;2.28;;;;;;;19.48;82.78;102045.53;7359231;19;20094;-66
2023/10/08 09:44:01;;;;;;;5.57;1.92;;;;;;;19.50;82.24;102051.56;7354529;19;20014;-65
2023/10/08 09:46:34;;;;;;;6.00;1.80;;;;;;;19.53;81.33;102041.31;7358405;19;20495;-67
2023/10/08 09:49:06;;;;;;;10.98;2.95;;;;;;;19.56;80.76;102051.63;7356911;19;21365;-66
2023/10/08 09:51:39;;;;;;;6.95;1.67;;;;;;;19.63;80.88;102051.75;7358615;19;20014;-66
2023/10/08 09:54:13;;;;;;;;;;;;;;;19.66;80.20;102054.03;7358681;19;20566;-66
2023/10/08 09:56:44;;;;;;;8.35;1.92;;;;;;;19.68;80.32;102053.88;7340968;19;19954;-66
2023/10/08 09:59:14;;;;;;;8.90;1.55;;;;;;;19.71;79.52;102067.69;7348484;19;20056;-66
2023/10/08 10:01:43;;;;;;;13.93;2.03;;;;;;;19.73;78.42;102064.84;7356839;19;21625;-66
2023/10/08 10:04:12;;;;;;;6.47;1.95;;;;;;;19.76;78.94;102070.63;7357040;19;20589;-66
2023/10/08 10:06:43;;;;;;;7.20;1.75;;;;;;;19.90;82.42;102071.69;7356038;19;20126;-68
2023/10/08 10:09:21;;;;;;;9.50;2.20;;;;;;;20.05;85.87;102067.16;7352301;19;20095;-66
2023/10/08 10:11:50;;;;;;;8.50;2.20;;;;;;;20.13;85.52;102075.09;7358784;19;20687;-65
2023/10/08 10:14:18;;;;;;;5.90;2.15;;;;;;;20.19;83.75;102081.53;7350680;19;20050;-66
2023/10/08 10:17:08;;;;;;;6.97;2.38;;;;;;;20.16;78.91;102081.94;7356823;19;20020;-66
2023/10/08 10:19:36;;;;;;;8.52;2.47;;;;;;;20.16;76.69;102088.09;7352325;19;20019;-66
2023/10/08 10:22:05;;;;;;;6.97;2.17;;;;;;;20.16;76.03;102081.94;7358614;19;20032;-67
2023/10/08 10:24:35;;;;;;;6.18;2.13;;;;;;;20.18;76.94;102075.38;7357981;19;20388;-65
2023/10/08 10:27:14;;;;;;;7.03;1.85;;;;;;;20.22;76.59;102082.00;7354452;19;20207;-66
2023/10/08 10:29:43;;;;;;;8.07;2.47;;;;;;;20.24;76.07;102081.81;7354223;19;20020;-66
2023/10/08 10:32:14;;;;;;;6.63;2.53;;;;;;;20.26;76.22;102077.97;7355705;19;20014;-66
2023/10/08 10:34:44;;;;;;;8.02;2.53;;;;;;;20.34;77.71;102080.56;7356186;19;20027;-66
2023/10/08 10:39:55;;;;;;;7.45;2.45;;;;;;;20.48;77.31;102073.50;7360964;19;20018;-65
2023/10/08 10:42:22;;;;;;;5.28;2.13;;;;;;;20.55;77.19;102068.25;7352599;19;20018;-65
2023/10/08 10:44:50;;;;;;;6.15;2.03;;;;;;;20.59;75.45;102074.88;7355074;19;20372;-66
2023/10/08 10:50:18;;;;;;;7.57;2.08;;;;;;;20.75;75.00;102074.66;7354611;19;20482;-66
2023/10/08 10:57:44;;;;;;;6.38;1.92;;;;;;;20.94;72.48;102066.00;7351362;19;20018;-65
2023/10/08 11:00:47;;;;;;;7.22;1.90;;;;;;;21.00;72.29;102061.75;7352977;19;20011;-65
2023/10/08 11:03:03;;;;;;;8.10;1.63;;;;;;;21.08;72.69;102061.66;7356593;19;20146;-66
2023/10/08 11:05:37;;;;;;;7.57;2.40;;;;;;;21.12;72.28;102055.72;7353830;19;20010;-65
2023/10/08 11:08:06;;;;;;;8.77;2.58;;;;;;;21.19;71.90;102063.81;7353922;19;20024;-65
2023/10/08 11:10:38;;;;;;;7.70;1.77;;;;;;;21.26;72.53;102072.75;7349980;19;20022;-66
2023/10/08 11:13:14;;;;;;;8.23;1.70;;;;;;;21.30;71.08;102068.66;7355218;19;21010;-65
2023/10/08 11:15:43;;;;;;;8.23;2.58;;;;;;;21.34;70.22;102067.25;7354803;19;20014;-66
2023/10/08 11:18:12;;;;;;;6.85;2.30;;;;;;;21.40;71.09;102071.00;7354586;19;20408;-66
2023/10/08 11:20:44;;;;;;;6.25;1.73;;;;;;;21.45;70.75;102073.94;7357126;19;20035;-66
2023/10/08 11:23:35;;;;;;;10.90;1.98;;;;;;;21.52;70.74;102080.19;7354674;19;20014;-66
2023/10/08 11:26:05;;;;;;;5.65;1.90;;;;;;;21.57;71.11;102067.03;7352442;19;20047;-65
2023/10/08 11:28:35;;;;;;;5.70;1.98;;;;;;;21.62;71.99;102075.31;7353601;19;20042;-66
2023/10/08 11:31:07;;;;;;;8.57;2.28;;;;;;;21.66;71.11;102074.72;7351748;19;20041;-66
2023/10/08 11:33:39;;;;;;;7.07;2.00;;;;;;;21.69;69.76;102074.31;7355597;19;20074;-66
2023/10/08 11:38:48;;;;;;;6.60;2.17;;;;;;;21.74;70.73;102073.75;7355998;19;20605;-65
2023/10/08 11:41:27;;;;;;;4.30;1.73;;;;;;;21.73;70.50;102066.75;7355236;19;21305;-66
2023/10/08 11:43:57;;;;;;;5.15;1.67;;;;;;;21.73;69.68;102067.59;7353791;19;20395;-66
2023/10/08 11:46:27;;;;;;;8.43;1.77;;;;;;;21.76;69.35;102069.03;7351366;19;20506;-67
2023/10/08 11:48:58;;;;;;;6.97;2.13;;;;;;;21.79;69.88;102067.81;7352789;19;20011;-65
2023/10/08 11:51:27;;;;;;;9.77;2.20;;;;;;;21.84;69.14;102062.69;7352086;19;20018;-66
2023/10/08 11:53:56;;;;;;;8.32;1.88;;;;;;;21.86;69.05;102061.47;7353295;19;20021;-66
2023/10/08 11:56:23;;;;;;;5.20;1.70;;;;;;;21.89;69.01;102058.38;7352944;19;20535;-65
2023/10/08 11:58:52;;;;;;;6.82;1.90;;;;;;;21.93;69.23;102054.31;7350019;19;20014;-66
2023/10/08 12:01:20;;;;;;;5.13;1.60;;;;;;;21.97;68.90;102049.41;7350186;19;20097;-66
2023/10/08 12:03:49;;;;;;;6.68;1.67;;;;;;;22.02;69.14;102058.50;7356383;19;20026;-66
2023/10/08 12:06:18;;;;;;;6.45;1.80;;;;;;;22.05;68.62;102047.38;7346464;19;20048;-66
2023/10/08 12:08:53;;;;;;;5.57;1.80;;;;;;;22.09;68.06;102050.50;7351386;19;20512;-66
2023/10/08 12:11:23;;;;;;;6.00;1.48;;;;;;;22.14;67.28;102040.00;7346105;19;20022;-65
2023/10/08 12:13:50;;;;;;;5.60;1.63;;;;;;;22.21;67.49;102042.72;7352577;19;20014;-66
2023/10/08 12:16:20;;;;;;;6.07;1.40;;;;;;;22.24;67.56;102036.97;7353457;19;20016;-67
2023/10/08 12:18:53;;;;;;;6.55;1.85;;;;;;;22.25;66.91;102034.06;7355505;19;20138;-66
2023/10/08 12:21:21;;;;;;;5.22;1.60;;;;;;;22.26;66.95;102037.56;7352611;19;20567;-66
2023/10/08 12:23:51;;;;;;;4.38;1.35;;;;;;;22.26;65.92;102033.03;7355448;19;20674;-65
2023/10/08 12:26:18;;;;;;;7.80;1.70;;;;;;;22.29;65.78;102029.97;7350651;19;20015;-66
2023/10/08 12:28:48;;;;;;;6.45;1.50;;;;;;;22.32;65.17;102026.88;7352065;19;20014;-66
2023/10/08 12:31:28;;;;;;;5.38;2.03;;;;;;;22.35;65.07;102029.16;7349965;19;20016;-67
2023/10/08 12:34:00;;;;;;;4.95;1.70;;;;;;;22.38;65.31;102028.75;7354249;19;20014;-65
2023/10/08 12:36:32;;;;;;;6.38;1.80;;;;;;;22.39;66.19;102019.69;7353356;19;20019;-67
2023/10/08 12:39:08;;;;;;;5.72;1.20;;;;;;;22.44;63.89;102013.72;7353269;19;20007;-65
2023/10/08 12:41:38;;;;;;;4.18;1.17;;;;;;;22.49;63.15;102012.09;7349952;19;20078;-66
2023/10/08 12:44:08;;;;;;;5.47;1.45;;;;;;;22.52;62.16;102014.34;7349821;19;20057;-67
2023/10/08 12:46:36;;;;;;;4.68;1.40;;;;;;;22.54;61.66;102016.84;7350475;19;20014;-65
2023/10/08 12:49:04;;;;;;;7.65;1.42;;;;;;;22.57;62.22;102000.31;7353606;19;20079;-65
2023/10/08 12:51:32;;;;;;;4.47;1.30;;;;;;;22.59;61.11;102001.78;7355634;19;20022;-65
2023/10/08 12:54:06;;;;;;;4.95;1.30;;;;;;;22.66;61.65;101990.22;7352047;19;20475;-66
2023/10/08 12:56:38;;;;;;;9.57;1.50;;;;;;;22.72;62.74;101989.44;7351614;19;21085;-66
2023/10/08 12:59:07;;;;;;;6.78;1.30;;;;;;;22.76;62.10;101990.69;7347988;19;20520;-69
2023/10/08 13:01:36;;;;;;;6.25;1.40;;;;;;;22.81;62.05;101986.34;7348960;19;20078;-67
2023/10/08 13:04:07;;;;;;;4.40;1.40;;;;;;;22.88;63.04;101981.00;7353475;19;20019;-65
2023/10/08 13:06:38;;;;;;;4.75;1.50;;;;;;;22.92;62.84;101975.00;7354749;19;20010;-66
2023/10/08 13:09:12;;;;;;;5.47;1.33;;;;;;;22.95;63.25;101977.31;7351987;19;22172;-65
2023/10/08 13:11:40;;;;;;;5.28;1.73;;;;;;;23.01;62.42;101975.63;7345922;19;20023;-66
2023/10/08 13:14:08;;;;;;;4.60;1.50;;;;;;;23.05;62.23;101966.16;7348245;19;20407;-67